createdAt,value
2019-05-10T00:00:15.331Z,83.50
2019-05-10T00:03:01.603Z,83.00
2019-05-10T00:05:47.935Z,82.80
2019-05-10T00:08:34.338Z,82.50
2019-05-10T00:11:08.239Z,82.50
2019-05-10T00:13:41.077Z,82.30
2019-05-10T00:16:09.305Z,82.90
2019-05-10T00:18:37.529Z,82.90
2019-05-10T00:21:05.759Z,83.10
2019-05-10T00:23:33.980Z,83.30
2019-05-10T00:26:02.207Z,83.80
2019-05-10T00:28:30.430Z,84.40
2019-05-10T00:30:59.202Z,84.50
2019-05-10T00:33:28.239Z,84.60
2019-05-10T00:35:58.133Z,84.70
2019-05-10T00:38:26.355Z,85.20
2019-05-10T00:40:54.588Z,84.70
2019-05-10T00:43:23.037Z,84.80
2019-05-10T00:45:51.300Z,85.00
2019-05-10T00:48:19.601Z,85.10
2019-05-10T00:50:47.840Z,85.10
2019-05-10T00:53:16.156Z,85.20
2019-05-10T00:55:44.448Z,85.90
2019-05-10T00:58:12.712Z,85.10
2019-05-10T01:00:40.942Z,85.20
2019-05-10T01:03:09.191Z,85.50
2019-05-10T01:05:39.307Z,85.40
2019-05-10T01:08:07.555Z,85.20
2019-05-10T01:10:35.786Z,85.20
2019-05-10T01:13:04.108Z,85.30
2019-05-10T01:15:32.341Z,85.60
2019-05-10T01:18:00.567Z,85.60
2019-05-10T01:20:28.793Z,86.00
2019-05-10T01:22:57.029Z,85.90
2019-05-10T01:25:34.624Z,86.00
2019-05-10T01:27:55.211Z,86.00
2019-05-10T01:30:23.478Z,86.30
2019-05-10T01:32:52.060Z,86.50
2019-05-10T01:35:20.323Z,86.20
2019-05-10T01:37:48.556Z,86.30
2019-05-10T01:40:16.789Z,86.20
2019-05-10T01:42:45.013Z,86.50
2019-05-10T01:45:13.261Z,86.40
2019-05-10T01:47:41.651Z,86.20
2019-05-10T01:50:11.482Z,86.20
2019-05-10T01:52:40.640Z,86.30
2019-05-10T01:55:08.964Z,86.40
2019-05-10T01:57:37.197Z,86.50
2019-05-10T02:00:08.684Z,86.70
2019-05-10T02:02:36.952Z,86.70
2019-05-10T02:05:05.355Z,86.60
2019-05-10T02:07:33.750Z,86.70
2019-05-10T02:10:02.052Z,87.00
2019-05-10T02:12:30.407Z,87.00
2019-05-10T02:14:58.664Z,87.20
2019-05-10T02:17:26.910Z,87.10
2019-05-10T02:19:55.156Z,87.10
2019-05-10T02:22:23.387Z,87.30
2019-05-10T02:24:51.650Z,87.30
2019-05-10T02:27:19.913Z,87.30
2019-05-10T02:29:48.137Z,87.20
2019-05-10T02:32:17.238Z,87.30
2019-05-10T02:34:45.469Z,87.50
2019-05-10T02:37:13.756Z,87.50
2019-05-10T02:39:42.029Z,87.80
2019-05-10T02:42:10.278Z,88.00
2019-05-10T02:44:38.552Z,88.40
2019-05-10T02:47:06.793Z,88.40
2019-05-10T02:49:35.117Z,88.60
2019-05-10T02:52:03.347Z,88.60
2019-05-10T02:54:32.424Z,88.70
2019-05-10T02:57:00.689Z,88.90
2019-05-10T02:59:28.895Z,89.00
2019-05-10T03:01:57.172Z,89.00
2019-05-10T03:04:25.718Z,89.10
2019-05-10T03:06:57.236Z,89.20
2019-05-10T03:09:28.184Z,88.90
2019-05-10T03:11:56.433Z,89.10
2019-05-10T03:14:24.781Z,89.10
2019-05-10T03:16:53.815Z,89.20
2019-05-10T03:19:22.048Z,89.30
2019-05-10T03:21:53.515Z,89.70
2019-05-10T03:24:27.058Z,89.80
2019-05-10T03:26:52.115Z,89.80
2019-05-10T03:29:20.378Z,89.80
2019-05-10T03:31:48.997Z,89.70
2019-05-10T03:34:17.231Z,89.70
2019-05-10T03:36:45.476Z,89.80
2019-05-10T03:39:14.896Z,89.80
2019-05-10T03:41:43.137Z,90.00
2019-05-10T03:44:11.496Z,90.00
2019-05-10T03:46:39.781Z,89.90
2019-05-10T03:49:08.129Z,90.00
2019-05-10T03:51:36.373Z,89.90
2019-05-10T03:54:05.059Z,90.00
2019-05-10T03:56:33.629Z,90.00
2019-05-10T03:59:01.862Z,90.00
2019-05-10T04:01:30.128Z,90.10
2019-05-10T04:03:58.381Z,90.20
2019-05-10T04:06:26.635Z,90.10
2019-05-10T04:08:54.989Z,90.10
2019-05-10T04:11:23.299Z,90.10
2019-05-10T04:13:52.154Z,90.20
2019-05-10T04:16:21.484Z,90.20
2019-05-10T04:18:49.953Z,89.30
2019-05-10T04:21:18.330Z,89.10
2019-05-10T04:23:47.014Z,89.40
2019-05-10T04:26:15.411Z,88.80
2019-05-10T04:28:43.731Z,88.80
2019-05-10T04:31:11.990Z,89.70
2019-05-10T04:33:40.223Z,90.20
2019-05-10T04:36:12.409Z,90.10
2019-05-10T04:38:38.603Z,90.20
2019-05-10T04:41:06.889Z,90.30
2019-05-10T04:43:35.580Z,90.10
2019-05-10T04:46:04.256Z,89.90
2019-05-10T04:48:32.513Z,89.90
2019-05-10T04:51:00.760Z,88.90
2019-05-10T04:53:29.076Z,88.70
2019-05-10T04:55:58.127Z,88.50
2019-05-10T04:58:26.379Z,88.00
2019-05-10T05:00:55.613Z,87.30
2019-05-10T05:03:23.835Z,87.40
2019-05-10T05:05:52.076Z,87.30
2019-05-10T05:08:20.296Z,87.80
2019-05-10T05:10:48.676Z,87.30
2019-05-10T05:13:16.932Z,87.20
2019-05-10T05:15:45.515Z,87.30
2019-05-10T05:18:13.848Z,87.20
2019-05-10T05:20:42.163Z,87.40
2019-05-10T05:23:10.387Z,87.60
2019-05-10T05:25:40.256Z,88.00
2019-05-10T05:28:08.720Z,87.70
2019-05-10T05:30:39.023Z,88.50
2019-05-10T05:33:08.846Z,87.70
2019-05-10T05:35:37.141Z,87.50
2019-05-10T05:38:05.598Z,88.10
2019-05-10T05:40:34.926Z,89.10
2019-05-10T05:43:08.095Z,89.40
2019-05-10T05:45:34.553Z,89.10
2019-05-10T05:48:03.547Z,90.00
2019-05-10T05:50:31.871Z,89.30
2019-05-10T05:53:00.177Z,88.80
2019-05-10T05:55:30.771Z,88.60
2019-05-10T05:57:59.259Z,88.20
2019-05-10T06:00:28.492Z,87.90
2019-05-10T06:02:56.757Z,88.10
2019-05-10T06:05:34.087Z,88.90
2019-05-10T06:07:55.137Z,88.00
2019-05-10T06:10:23.433Z,88.00
2019-05-10T06:12:53.003Z,87.70
2019-05-10T06:15:22.998Z,87.40
2019-05-10T06:17:57.105Z,87.10
2019-05-10T06:20:21.678Z,86.90
2019-05-10T06:23:06.033Z,86.30
2019-05-10T06:25:38.113Z,86.40
2019-05-10T06:27:49.843Z,86.50
2019-05-10T06:30:18.832Z,86.50
2019-05-10T06:32:53.358Z,86.40
2019-05-10T06:35:19.565Z,86.40
2019-05-10T06:37:47.433Z,86.40
2019-05-10T06:40:15.729Z,86.50
2019-05-10T06:42:44.127Z,86.30
2019-05-10T06:45:15.756Z,86.40
2019-05-10T06:47:47.534Z,86.10
2019-05-10T06:50:12.549Z,86.20
2019-05-10T06:52:40.791Z,86.20
2019-05-10T06:55:09.015Z,86.20
2019-05-10T06:57:37.383Z,86.40
2019-05-10T07:00:08.509Z,86.50
2019-05-10T07:02:36.786Z,86.50
2019-05-10T07:05:05.028Z,86.70
2019-05-10T07:07:43.698Z,86.90
2019-05-10T07:10:13.065Z,86.40
2019-05-10T07:12:33.752Z,86.00
2019-05-10T07:15:03.335Z,86.00
2019-05-10T07:17:40.734Z,85.20
2019-05-10T07:20:03.444Z,84.80
2019-05-10T07:22:51.207Z,84.30
2019-05-10T07:25:19.430Z,84.50
2019-05-10T07:27:50.313Z,84.80
2019-05-10T07:30:32.531Z,85.00
2019-05-10T07:33:02.060Z,85.00
2019-05-10T07:35:30.938Z,85.00
2019-05-10T07:38:00.136Z,84.60
2019-05-10T07:40:28.403Z,84.80
2019-05-10T07:42:56.700Z,85.10
2019-05-10T07:45:25.634Z,85.60
2019-05-10T07:47:54.915Z,86.00
2019-05-10T07:50:23.303Z,85.80
2019-05-10T07:52:51.616Z,85.00
2019-05-10T07:55:27.454Z,85.40
2019-05-10T07:57:49.901Z,85.80
2019-05-10T08:00:18.151Z,86.40
2019-05-10T08:02:55.009Z,86.90
2019-05-10T08:05:18.300Z,88.10
2019-05-10T08:07:46.465Z,88.20
2019-05-10T08:10:14.787Z,88.70
2019-05-10T08:12:45.669Z,90.00
2019-05-10T08:15:13.095Z,89.30
2019-05-10T08:17:45.607Z,89.90
2019-05-10T08:20:25.625Z,89.70
2019-05-10T08:22:45.671Z,90.00
2019-05-10T08:25:15.253Z,89.50
2019-05-10T08:27:50.045Z,88.90
2019-05-10T08:30:26.317Z,89.10
2019-05-10T08:32:42.577Z,90.10
2019-05-10T08:35:16.525Z,90.00
2019-05-10T08:37:43.233Z,89.00
2019-05-10T08:40:12.799Z,88.60
2019-05-10T08:42:48.216Z,88.40
2019-05-10T08:45:12.548Z,88.20
2019-05-10T08:47:42.637Z,89.10
2019-05-10T08:50:26.396Z,88.20
2019-05-10T08:52:42.306Z,88.50
2019-05-10T08:55:12.381Z,87.50
2019-05-10T08:57:44.478Z,86.60
2019-05-10T09:00:13.057Z,86.30
2019-05-10T09:02:42.682Z,86.00
2019-05-10T09:05:12.466Z,86.50
2019-05-10T09:07:42.937Z,87.10
2019-05-10T09:10:12.820Z,87.50
2019-05-10T09:12:50.273Z,87.20
2019-05-10T09:15:13.309Z,87.90
2019-05-10T09:17:42.778Z,87.90
2019-05-10T09:20:14.023Z,88.10
2019-05-10T09:22:42.443Z,87.70
2019-05-10T09:25:12.885Z,87.60
2019-05-10T09:27:43.218Z,87.10
2019-05-10T09:30:16.171Z,87.80
2019-05-10T09:32:43.165Z,88.30
2019-05-10T09:35:12.699Z,86.70
2019-05-10T09:37:42.050Z,86.60
2019-05-10T09:40:13.085Z,87.20
2019-05-10T09:42:43.378Z,86.90
2019-05-10T09:45:12.653Z,86.50
2019-05-10T09:47:43.524Z,86.90
2019-05-10T09:50:12.687Z,87.20
2019-05-10T09:52:41.224Z,86.90
2019-05-10T09:55:14.518Z,86.60
2019-05-10T09:57:40.263Z,86.60
2019-05-10T10:00:10.012Z,87.10
2019-05-10T10:02:40.670Z,87.20
2019-05-10T10:05:08.987Z,87.30
2019-05-10T10:07:37.461Z,87.00
2019-05-10T10:10:07.330Z,87.20
2019-05-10T10:12:37.298Z,86.20
2019-05-10T10:15:09.318Z,85.40
2019-05-10T10:17:40.323Z,85.20
2019-05-10T10:20:08.151Z,86.20
2019-05-10T10:22:38.161Z,86.10
2019-05-10T10:25:07.383Z,85.10
2019-05-10T10:27:38.751Z,85.50
2019-05-10T10:30:12.717Z,85.60
2019-05-10T10:32:37.565Z,85.90
2019-05-10T10:35:07.853Z,85.20
2019-05-10T10:37:37.957Z,86.20
2019-05-10T10:40:08.761Z,86.60
2019-05-10T10:42:38.078Z,87.00
2019-05-10T10:45:07.723Z,86.30
2019-05-10T10:47:38.153Z,85.50
2019-05-10T10:50:09.098Z,85.40
2019-05-10T10:52:37.775Z,85.60
2019-05-10T10:55:11.028Z,85.60
2019-05-10T10:57:37.478Z,85.80
2019-05-10T11:00:09.674Z,85.50
2019-05-10T11:02:41.348Z,84.80
2019-05-10T11:05:08.646Z,84.20
2019-05-10T11:07:41.118Z,83.60
2019-05-10T11:10:17.921Z,83.40
2019-05-10T11:12:37.885Z,82.80
2019-05-10T11:15:06.117Z,82.60
2019-05-10T11:17:34.453Z,83.00
2019-05-10T11:20:08.446Z,82.40
2019-05-10T11:22:35.500Z,82.40
2019-05-10T11:25:09.486Z,81.60
2019-05-10T11:27:35.008Z,82.30
2019-05-10T11:30:04.131Z,82.80
2019-05-10T11:32:32.336Z,83.00
2019-05-10T11:35:00.733Z,82.70
2019-05-10T11:37:32.834Z,82.80
2019-05-10T11:40:01.776Z,83.20
2019-05-10T11:42:31.744Z,83.50
2019-05-10T11:45:00.819Z,82.90
2019-05-10T11:47:31.251Z,82.80
2019-05-10T11:50:06.111Z,83.00
2019-05-10T11:52:34.620Z,83.20
2019-05-10T11:55:01.211Z,83.50
2019-05-10T11:57:32.895Z,82.60
2019-05-10T11:59:59.641Z,83.20
2019-05-10T12:02:38.538Z,83.20
2019-05-10T12:07:35.183Z,81.20
2019-05-10T12:10:08.425Z,81.30
2019-05-10T12:12:45.018Z,79.90
2019-05-10T12:14:58.004Z,79.20
2019-05-10T12:17:26.258Z,78.50
2019-05-10T12:19:56.338Z,80.10
2019-05-10T12:25:20.777Z,79.50
2019-05-10T12:25:59.929Z,81.90
2019-05-10T12:26:27.898Z,79.70
2019-05-10T12:27:30.035Z,78.90
2019-05-10T12:30:02.610Z,79.40
2019-05-10T12:32:32.060Z,78.20
2019-05-10T12:34:56.843Z,78.20
2019-05-10T12:37:25.188Z,78.80
2019-05-10T12:39:53.420Z,78.70
2019-05-10T12:42:21.919Z,78.90
2019-05-10T12:44:51.640Z,79.70
2019-05-10T12:47:21.451Z,79.30
2019-05-10T12:49:53.905Z,78.50
2019-05-10T12:52:22.125Z,79.50
2019-05-10T12:54:49.824Z,78.70
2019-05-10T12:57:18.052Z,77.80
2019-05-10T12:59:46.265Z,77.80
2019-05-10T13:02:14.575Z,78.20
2019-05-10T13:04:47.099Z,78.00
2019-05-10T13:07:13.025Z,78.60
2019-05-10T13:09:41.355Z,77.10
2019-05-10T13:12:09.730Z,77.40
2019-05-10T13:14:40.257Z,76.90
2019-05-10T13:17:09.929Z,77.20
2019-05-10T13:19:37.900Z,77.00
2019-05-10T13:22:07.445Z,76.90
2019-05-10T13:24:36.112Z,77.50
2019-05-10T13:27:04.364Z,77.40
2019-05-10T13:29:33.537Z,76.90
2019-05-10T13:32:01.783Z,77.40
2019-05-10T13:34:30.043Z,74.70
2019-05-10T13:36:58.288Z,75.10
2019-05-10T13:39:27.700Z,75.30
2019-05-10T13:41:57.236Z,74.00
2019-05-10T13:44:26.178Z,73.40
2019-05-10T13:46:54.405Z,71.30
2019-05-10T13:49:22.640Z,72.40
2019-05-10T13:51:51.816Z,70.80
2019-05-10T13:54:20.046Z,71.60
2019-05-10T13:56:52.422Z,72.20
2019-05-10T13:59:18.231Z,71.00
2019-05-10T14:01:49.528Z,71.70
2019-05-10T14:04:16.798Z,72.20
2019-05-10T14:06:45.196Z,72.60
2019-05-10T14:09:13.420Z,72.20
2019-05-10T14:11:46.909Z,72.40
2019-05-10T14:14:19.797Z,71.50
2019-05-10T14:16:44.446Z,71.30
2019-05-10T14:19:15.836Z,71.20
2019-05-10T14:21:43.588Z,70.70
2019-05-10T14:24:15.340Z,70.90
2019-05-10T14:26:41.927Z,71.30
2019-05-10T14:29:11.235Z,70.30
2019-05-10T14:31:40.481Z,69.10
2019-05-10T14:34:16.076Z,70.60
2019-05-10T14:36:40.826Z,68.90
2019-05-10T14:39:08.606Z,68.50
2019-05-10T14:41:39.857Z,68.70
2019-05-10T14:44:06.811Z,67.30
2019-05-10T14:46:35.023Z,68.10
2019-05-10T14:49:09.618Z,68.70
2019-05-10T14:51:49.455Z,69.20
2019-05-10T14:54:06.814Z,68.30
2019-05-10T14:56:33.422Z,67.40
2019-05-10T14:59:03.166Z,66.40
2019-05-10T15:01:36.823Z,66.80
2019-05-10T15:04:01.457Z,66.10
2019-05-10T15:06:30.625Z,66.60
2019-05-10T15:08:59.630Z,66.10
2019-05-10T15:11:31.633Z,66.50
2019-05-10T15:13:57.811Z,67.50
2019-05-10T15:16:30.374Z,66.50
2019-05-10T15:18:57.008Z,69.90
2019-05-10T15:21:25.531Z,66.50
2019-05-10T15:23:55.303Z,69.70
2019-05-10T15:26:23.843Z,69.50
2019-05-10T15:28:52.149Z,65.50
2019-05-10T15:31:23.679Z,65.30
2019-05-10T15:33:50.320Z,64.50
2019-05-10T15:36:23.758Z,66.00
2019-05-10T15:38:51.665Z,65.60
2019-05-10T15:41:22.393Z,63.70
2019-05-10T15:43:53.358Z,62.40
2019-05-10T15:46:18.891Z,63.20
2019-05-10T15:48:48.050Z,62.80
2019-05-10T15:51:16.945Z,62.40
2019-05-10T15:53:46.255Z,63.20
2019-05-10T15:56:14.502Z,63.30
2019-05-10T15:58:42.944Z,62.30
2019-05-10T16:01:14.137Z,62.80
2019-05-10T16:03:41.392Z,61.70
2019-05-10T16:06:09.615Z,61.70
2019-05-10T16:08:38.939Z,61.60
2019-05-10T16:11:17.537Z,61.40
2019-05-10T16:13:37.111Z,61.00
2019-05-10T16:16:05.367Z,60.80
2019-05-10T16:18:39.881Z,60.90
2019-05-10T16:21:03.589Z,61.20
2019-05-10T16:23:31.823Z,62.00
2019-05-10T16:29:39.706Z,61.60
2019-05-10T16:32:04.215Z,61.90
2019-05-10T16:34:34.177Z,61.70
2019-05-10T16:37:02.648Z,62.50
2019-05-10T16:39:48.875Z,61.50
2019-05-10T16:42:18.341Z,60.80
2019-05-10T16:44:46.712Z,61.10
2019-05-10T16:47:14.958Z,60.60
2019-05-10T16:49:47.839Z,60.80
2019-05-10T16:52:13.171Z,60.10
2019-05-10T16:54:41.386Z,60.00
2019-05-10T16:57:09.635Z,60.60
2019-05-10T16:59:37.923Z,60.60
2019-05-10T17:02:06.640Z,61.00
2019-05-10T17:04:37.528Z,61.30
2019-05-10T17:07:05.155Z,61.00
2019-05-10T17:09:33.458Z,61.60
2019-05-10T17:12:01.711Z,60.80
2019-05-10T17:14:29.919Z,61.20
2019-05-10T17:16:59.795Z,60.40
2019-05-10T17:19:33.857Z,60.80
2019-05-10T17:21:58.070Z,60.10
2019-05-10T17:24:26.372Z,60.60
2019-05-10T17:26:54.615Z,59.90
2019-05-10T17:29:23.125Z,60.00
2019-05-10T17:31:51.443Z,60.20
2019-05-10T17:34:27.540Z,60.10
2019-05-10T17:36:57.079Z,60.80
2019-05-10T17:39:19.916Z,60.30
2019-05-10T17:41:48.157Z,60.40
2019-05-10T17:44:23.140Z,60.30
2019-05-10T17:46:50.223Z,61.10
2019-05-10T17:49:18.827Z,61.00
2019-05-10T17:51:47.049Z,61.10
2019-05-10T17:54:16.537Z,60.60
2019-05-10T17:56:44.805Z,60.30
2019-05-10T17:59:14.002Z,59.90
2019-05-10T18:01:42.285Z,60.40
2019-05-10T18:04:10.551Z,60.80
2019-05-10T18:06:38.924Z,59.70
2019-05-10T18:09:07.199Z,59.70
2019-05-10T18:11:36.781Z,60.10
2019-05-10T18:14:05.550Z,60.00
2019-05-10T18:16:33.779Z,60.30
2019-05-10T18:19:02.221Z,60.10
2019-05-10T18:21:30.459Z,60.70
2019-05-10T18:23:59.811Z,61.10
2019-05-10T18:26:33.975Z,61.40
2019-05-10T18:28:59.085Z,61.40
2019-05-10T18:31:27.339Z,61.60
2019-05-10T18:33:56.005Z,61.20
2019-05-10T18:36:40.996Z,61.50
2019-05-10T18:38:54.589Z,62.00
2019-05-10T18:41:22.882Z,62.10
2019-05-10T18:43:51.114Z,62.90
2019-05-10T18:46:19.369Z,63.70
2019-05-10T18:48:47.729Z,63.80
2019-05-10T18:51:17.894Z,64.10
2019-05-10T18:53:46.400Z,64.20
2019-05-10T18:56:14.651Z,64.30
2019-05-10T18:58:42.948Z,64.10
2019-05-10T19:01:11.181Z,64.40
2019-05-10T19:03:39.422Z,64.70
2019-05-10T19:06:10.955Z,65.00
2019-05-10T19:08:37.739Z,64.70
2019-05-10T19:11:06.657Z,65.10
2019-05-10T19:13:46.736Z,65.10
2019-05-10T19:16:05.279Z,65.50
2019-05-10T19:18:33.561Z,65.50
2019-05-10T19:21:02.015Z,66.40
2019-05-10T19:23:30.230Z,66.40
2019-05-10T19:25:58.454Z,67.00
2019-05-10T19:28:28.370Z,67.50
2019-05-10T19:30:58.663Z,66.80
2019-05-10T19:33:29.893Z,67.20
2019-05-10T19:35:56.904Z,67.70
2019-05-10T19:38:25.188Z,67.60
2019-05-10T19:40:53.531Z,67.30
2019-05-10T19:43:23.818Z,68.00
2019-05-10T19:45:57.491Z,68.40
2019-05-10T19:48:21.995Z,68.70
2019-05-10T19:50:50.214Z,69.10
2019-05-10T19:53:18.495Z,70.00
2019-05-10T19:55:51.323Z,70.00
2019-05-10T19:58:16.686Z,70.60
2019-05-10T20:00:45.012Z,71.00
2019-05-10T20:03:13.419Z,71.50
2019-05-10T20:05:41.668Z,71.90
2019-05-10T20:08:10.052Z,71.50
2019-05-10T20:10:38.363Z,71.50
2019-05-10T20:13:06.607Z,72.50
2019-05-10T20:15:35.043Z,73.10
2019-05-10T20:18:03.355Z,73.30
2019-05-10T20:20:32.244Z,72.70
2019-05-10T20:23:00.692Z,72.80
2019-05-10T20:25:28.987Z,73.50
2019-05-10T20:27:57.256Z,73.80
2019-05-10T20:30:25.521Z,74.00
2019-05-10T20:32:53.757Z,74.40
2019-05-10T20:35:22.004Z,74.30
2019-05-10T20:38:01.263Z,74.30
2019-05-10T20:40:20.267Z,74.40
2019-05-10T20:42:48.528Z,74.50
2019-05-10T20:45:16.742Z,74.60
2019-05-10T20:47:45.081Z,74.90
2019-05-10T20:50:13.356Z,75.10
2019-05-10T20:52:41.601Z,75.30
2019-05-10T20:55:10.025Z,75.20
2019-05-10T20:57:38.244Z,74.70
2019-05-10T21:00:06.870Z,75.20
2019-05-10T21:02:35.169Z,76.00
2019-05-10T21:05:05.144Z,75.40
2019-05-10T21:07:33.434Z,75.80
2019-05-10T21:10:01.673Z,76.10
2019-05-10T21:12:30.004Z,76.00
2019-05-10T21:14:58.237Z,77.10
2019-05-10T21:17:26.475Z,76.60
2019-05-10T21:19:54.706Z,77.10
2019-05-10T21:22:22.927Z,77.20
2019-05-10T21:24:51.150Z,77.30
2019-05-10T21:27:19.419Z,76.90
2019-05-10T21:29:47.810Z,77.00
2019-05-10T21:32:16.039Z,77.30
2019-05-10T21:34:44.254Z,77.40
2019-05-10T21:37:12.486Z,77.30
2019-05-10T21:39:40.725Z,77.40
2019-05-10T21:42:11.474Z,77.20
2019-05-10T21:44:39.714Z,77.20
2019-05-10T21:47:07.924Z,77.10
2019-05-10T21:49:36.151Z,77.00
2019-05-10T21:52:04.391Z,77.20
2019-05-10T21:54:32.675Z,77.60
2019-05-10T21:57:00.940Z,77.90
2019-05-10T21:59:29.210Z,78.10
2019-05-10T22:01:59.080Z,78.10
2019-05-10T22:04:27.356Z,78.30
2019-05-10T22:06:55.567Z,78.40
2019-05-10T22:09:23.919Z,78.50
2019-05-10T22:11:52.367Z,78.40
2019-05-10T22:14:20.583Z,78.60
2019-05-10T22:16:49.066Z,78.80
2019-05-10T22:19:17.299Z,79.10
2019-05-10T22:21:45.535Z,79.50
2019-05-10T22:24:13.884Z,79.70
2019-05-10T22:26:42.110Z,79.70
2019-05-10T22:29:10.317Z,79.90
2019-05-10T22:31:38.543Z,79.80
2019-05-10T22:34:06.838Z,79.90
2019-05-10T22:36:35.062Z,79.90
2019-05-10T22:39:07.513Z,79.90
2019-05-10T22:41:34.083Z,80.00
2019-05-10T22:44:03.207Z,80.50
2019-05-10T22:46:31.424Z,80.80
2019-05-10T22:48:59.651Z,80.70
2019-05-10T22:51:27.871Z,81.10
2019-05-10T22:54:00.093Z,81.40
2019-05-10T22:56:26.149Z,81.40
2019-05-10T22:58:54.345Z,81.50
2019-05-10T23:01:22.583Z,81.50
2019-05-10T23:03:50.807Z,81.40
2019-05-10T23:06:19.235Z,81.40
2019-05-10T23:08:47.556Z,81.20
2019-05-10T23:11:16.089Z,81.00
2019-05-10T23:13:44.331Z,81.00
2019-05-10T23:16:12.560Z,81.00
2019-05-10T23:18:40.806Z,81.20
2019-05-10T23:21:09.104Z,81.40
2019-05-10T23:23:37.315Z,81.60
2019-05-10T23:26:05.533Z,81.90
2019-05-10T23:28:33.847Z,82.10
2019-05-10T23:31:02.059Z,82.40
2019-05-10T23:33:30.294Z,82.20
2019-05-10T23:35:58.522Z,81.90
2019-05-10T23:38:26.796Z,81.90
2019-05-10T23:40:55.033Z,82.00
2019-05-10T23:43:23.254Z,82.20
2019-05-10T23:45:51.475Z,82.30
2019-05-10T23:48:19.695Z,82.50
2019-05-10T23:50:47.911Z,82.80
2019-05-10T23:53:16.144Z,83.10
2019-05-10T23:55:44.356Z,83.10
2019-05-10T23:58:12.609Z,83.20
